Time,TemperatureF,DewpointF,PressureIn,WindDirection,WindDirectionDegrees,WindSpeedMPH,WindSpeedGustMPH,Humidity,HourlyPrecipIn,Conditions,Clouds,dailyrainin,SoftwareType,DateUTC
2013-07-18 00:02:00,78.8,59.7,30.17,NNE,20,0.0,0.0,52,0.00,CLR,,0.00,WeatherDisplay:10.37,2013-07-18 05:02:00,
2013-07-18 00:07:00,78.6,60.1,30.17,NNE,20,0.0,0.0,53,0.00,CLR,,0.00,WeatherDisplay:10.37,2013-07-18 05:07:00,
2013-07-18 00:12:00,78.6,60.1,30.17,NNE,20,0.0,0.0,53,0.00,CLR,,0.00,WeatherDisplay:10.37,2013-07-18 05:12:00,
2013-07-18 00:17:00,78.4,59.9,30.17,NNE,20,0.0,0.0,53,0.00,CLR,,0.00,WeatherDisplay:10.37,2013-07-18 05:17:00,
2013-07-18 00:22:00,78.4,59.9,30.17,NNE,20,0.0,0.0,53,0.00,CLR,,0.00,WeatherDisplay:10.37,2013-07-18 05:22:00,
2013-07-18 00:27:00,78.4,59.9,30.17,NNE,20,0.0,0.0,53,0.00,CLR,,0.00,WeatherDisplay:10.37,2013-07-18 05:27:00,
2013-07-18 00:32:00,78.4,59.9,30.17,NNE,20,0.0,0.0,53,0.00,CLR,,0.00,WeatherDisplay:10.37,2013-07-18 05:32:00,
2013-07-18 00:37:00,78.6,60.1,30.17,NNE,20,0.0,0.0,53,0.00,CLR,,0.00,WeatherDisplay:10.37,2013-07-18 05:37:00,
2013-07-18 00:42:00,78.6,60.1,30.17,NNE,20,0.0,0.0,53,0.00,CLR,,0.00,WeatherDisplay:10.37,2013-07-18 05:42:00,
2013-07-18 00:47:00,78.6,60.1,30.17,NNE,20,0.0,0.0,53,0.00,CLR,,0.00,WeatherDisplay:10.37,2013-07-18 05:47:00,
2013-07-18 00:52:00,78.4,60.4,30.17,NNE,20,0.0,0.0,54,0.00,CLR,,0.00,WeatherDisplay:10.37,2013-07-18 05:52:00,
2013-07-18 00:57:00,78.3,60.8,30.17,NNE,20,0.0,0.0,55,0.00,CLR,,0.00,WeatherDisplay:10.37,2013-07-18 05:57:00,
2013-07-18 01:02:00,78.3,61.3,30.17,NNE,20,0.0,0.0,56,0.00,CLR,,0.00,WeatherDisplay:10.37,2013-07-18 06:02:00,
2013-07-18 01:07:00,78.3,61.3,30.17,NNE,20,0.0,0.0,56,0.00,CLR,,0.00,WeatherDisplay:10.37,2013-07-18 06:07:00,
2013-07-18 01:12:00,78.4,61.4,30.17,NNE,20,0.0,0.0,56,0.00,CLR,,0.00,WeatherDisplay:10.37,2013-07-18 06:12:00,
2013-07-18 01:17:00,78.4,61.4,30.17,NNE,20,0.0,0.0,56,0.00,CLR,,0.00,WeatherDisplay:10.37,2013-07-18 06:17:00,
2013-07-18 01:22:00,78.4,61.4,30.17,NNE,20,0.0,0.0,56,0.00,CLR,,0.00,WeatherDisplay:10.37,2013-07-18 06:22:00,
2013-07-18 01:27:00,78.4,61.4,30.17,NNE,20,0.0,0.0,56,0.00,CLR,,0.00,WeatherDisplay:10.37,2013-07-18 06:27:00,
2013-07-18 01:32:00,78.1,61.1,30.17,NNE,20,0.0,0.0,56,0.00,CLR,,0.00,WeatherDisplay:10.37,2013-07-18 06:32:00,
2013-07-18 01:37:00,78.1,61.1,30.17,NNE,20,0.0,0.0,56,0.00,CLR,,0.00,WeatherDisplay:10.37,2013-07-18 06:37:00,
2013-07-18 01:42:00,77.9,61.4,30.17,NNE,20,0.0,0.0,57,0.00,CLR,,0.00,WeatherDisplay:10.37,2013-07-18 06:42:00,
2013-07-18 01:47:00,77.9,61.4,30.17,NNE,20,0.0,0.0,57,0.00,CLR,,0.00,WeatherDisplay:10.37,2013-07-18 06:47:00,
2013-07-18 01:52:00,77.7,61.3,30.17,NNE,20,0.0,0.0,57,0.00,CLR,,0.00,WeatherDisplay:10.37,2013-07-18 06:52:00,
2013-07-18 01:57:00,77.4,60.9,30.17,NNE,20,0.0,0.0,57,0.00,CLR,,0.00,WeatherDisplay:10.37,2013-07-18 06:57:00,
2013-07-18 02:02:00,77.2,60.8,30.17,NNE,20,0.0,0.0,57,0.00,CLR,,0.00,WeatherDisplay:10.37,2013-07-18 07:02:00,
2013-07-18 02:07:00,77.0,60.6,30.17,NNE,20,0.0,0.0,57,0.00,CLR,,0.00,WeatherDisplay:10.37,2013-07-18 07:07:00,
2013-07-18 02:12:00,77.2,61.3,30.17,NNE,20,0.0,0.0,58,0.00,CLR,,0.00,WeatherDisplay:10.37,2013-07-18 07:12:00,
2013-07-18 02:17:00,77.2,61.3,30.17,NNE,20,0.0,0.0,58,0.00,CLR,,0.00,WeatherDisplay:10.37,2013-07-18 07:17:00,
2013-07-18 02:22:00,77.4,61.4,30.17,NNE,20,0.0,0.0,58,0.00,CLR,,0.00,WeatherDisplay:10.37,2013-07-18 07:22:00,
2013-07-18 02:27:00,77.2,61.3,30.17,NNE,20,0.0,0.0,58,0.00,CLR,,0.00,WeatherDisplay:10.37,2013-07-18 07:27:00,
2013-07-18 02:32:00,77.0,61.1,30.17,NNE,20,0.0,0.0,58,0.00,CLR,,0.00,WeatherDisplay:10.37,2013-07-18 07:32:00,
2013-07-18 02:37:00,76.8,60.9,30.17,NNE,20,0.0,0.0,58,0.00,CLR,,0.00,WeatherDisplay:10.37,2013-07-18 07:37:00,
2013-07-18 02:42:00,76.8,60.9,30.17,NNE,20,0.0,0.0,58,0.00,CLR,,0.00,WeatherDisplay:10.37,2013-07-18 07:42:00,
2013-07-18 02:47:00,76.8,61.4,30.17,NNE,20,0.0,0.0,59,0.00,CLR,,0.00,WeatherDisplay:10.37,2013-07-18 07:47:00,
2013-07-18 02:52:00,76.8,61.4,30.14,NNE,20,0.0,0.0,59,0.00,CLR,,0.00,WeatherDisplay:10.37,2013-07-18 07:52:00,
2013-07-18 02:57:00,76.8,61.4,30.14,NNE,20,0.0,0.0,59,0.00,CLR,,0.00,WeatherDisplay:10.37,2013-07-18 07:57:00,
2013-07-18 03:02:00,77.0,61.6,30.14,NNE,20,0.0,0.0,59,0.00,CLR,,0.00,WeatherDisplay:10.37,2013-07-18 08:02:00,
2013-07-18 03:07:00,77.0,61.6,30.14,NNE,20,0.0,0.0,59,0.00,CLR,,0.00,WeatherDisplay:10.37,2013-07-18 08:07:00,
2013-07-18 03:12:00,77.0,61.6,30.14,NNE,20,0.0,0.0,59,0.00,CLR,,0.00,WeatherDisplay:10.37,2013-07-18 08:12:00,
2013-07-18 03:17:00,76.6,61.2,30.14,NNE,20,0.0,0.0,59,0.00,CLR,,0.00,WeatherDisplay:10.37,2013-07-18 08:17:00,
2013-07-18 03:22:00,76.5,61.1,30.14,NNE,20,0.0,0.0,59,0.00,CLR,,0.00,WeatherDisplay:10.37,2013-07-18 08:22:00,
2013-07-18 03:27:00,76.3,61.4,30.14,NNE,20,0.0,0.0,60,0.00,CLR,,0.00,WeatherDisplay:10.37,2013-07-18 08:27:00,
2013-07-18 03:32:00,76.3,61.4,30.14,NNE,20,0.0,0.0,60,0.00,CLR,,0.00,WeatherDisplay:10.37,2013-07-18 08:32:00,
2013-07-18 03:37:00,76.3,61.4,30.14,NNE,20,0.0,0.0,60,0.00,CLR,,0.00,WeatherDisplay:10.37,2013-07-18 08:37:00,
2013-07-18 03:42:00,76.5,62.0,30.14,NNE,20,0.0,0.0,61,0.00,CLR,,0.00,WeatherDisplay:10.37,2013-07-18 08:42:00,
2013-07-18 03:47:00,76.6,62.2,30.14,NNE,20,0.0,0.0,61,0.00,CLR,,0.00,WeatherDisplay:10.37,2013-07-18 08:47:00,
2013-07-18 03:52:00,76.6,62.2,30.14,NNE,20,0.0,0.0,61,0.00,CLR,,0.00,WeatherDisplay:10.37,2013-07-18 08:52:00,
2013-07-18 03:57:00,76.6,62.2,30.14,NNE,20,0.0,0.0,61,0.00,CLR,,0.00,WeatherDisplay:10.37,2013-07-18 08:57:00,
2013-07-18 04:02:00,76.5,62.0,30.14,NNE,20,0.0,0.0,61,0.00,CLR,,0.00,WeatherDisplay:10.37,2013-07-18 09:02:00,
2013-07-18 04:07:00,76.5,62.0,30.14,NNE,20,0.0,0.0,61,0.00,CLR,,0.00,WeatherDisplay:10.37,2013-07-18 09:07:00,
2013-07-18 04:12:00,76.5,62.0,30.14,NNE,20,0.0,0.0,61,0.00,CLR,,0.00,WeatherDisplay:10.37,2013-07-18 09:12:00,
2013-07-18 04:17:00,76.5,62.0,30.14,NNE,20,0.0,0.0,61,0.00,CLR,,0.00,WeatherDisplay:10.37,2013-07-18 09:17:00,
2013-07-18 04:22:00,76.5,62.0,30.14,NNE,20,0.0,0.0,61,0.00,CLR,,0.00,WeatherDisplay:10.37,2013-07-18 09:22:00,
2013-07-18 04:27:00,76.5,62.0,30.14,NNE,20,0.0,0.0,61,0.00,CLR,,0.00,WeatherDisplay:10.37,2013-07-18 09:27:00,
2013-07-18 04:32:00,76.5,62.0,30.14,NNE,20,0.0,0.0,61,0.00,CLR,,0.00,WeatherDisplay:10.37,2013-07-18 09:32:00,
2013-07-18 04:37:00,76.5,62.0,30.14,NNE,20,0.0,0.0,61,0.00,CLR,,0.00,WeatherDisplay:10.37,2013-07-18 09:37:00,
2013-07-18 04:42:00,76.5,62.0,30.14,NNE,20,0.0,0.0,61,0.00,CLR,,0.00,WeatherDisplay:10.37,2013-07-18 09:42:00,
2013-07-18 04:47:00,76.3,61.8,30.14,NNE,20,0.0,0.0,61,0.00,CLR,,0.00,WeatherDisplay:10.37,2013-07-18 09:47:00,
2013-07-18 04:52:00,76.3,61.8,30.14,NNE,20,0.0,0.0,61,0.00,CLR,,0.00,WeatherDisplay:10.37,2013-07-18 09:52:00,
2013-07-18 04:57:00,76.3,61.8,30.14,NNE,20,0.0,0.0,61,0.00,CLR,,0.00,WeatherDisplay:10.37,2013-07-18 09:57:00,
2013-07-18 05:02:00,76.3,61.8,30.14,NNE,20,0.0,0.0,61,0.00,CLR,,0.00,WeatherDisplay:10.37,2013-07-18 10:02:00,
2013-07-18 05:07:00,76.3,61.8,30.14,NNE,20,0.0,0.0,61,0.00,CLR,,0.00,WeatherDisplay:10.37,2013-07-18 10:07:00,
2013-07-18 05:12:00,76.3,61.8,30.14,NNE,20,0.0,0.0,61,0.00,CLR,,0.00,WeatherDisplay:10.37,2013-07-18 10:12:00,
2013-07-18 05:17:00,76.1,61.7,30.14,NNE,20,0.0,0.0,61,0.00,CLR,,0.00,WeatherDisplay:10.37,2013-07-18 10:17:00,
2013-07-18 05:22:00,76.1,62.1,30.14,NNE,20,0.0,0.0,62,0.00,CLR,,0.00,WeatherDisplay:10.37,2013-07-18 10:22:00,
2013-07-18 05:27:00,76.1,62.1,30.14,NNE,20,0.0,0.0,62,0.00,CLR,,0.00,WeatherDisplay:10.37,2013-07-18 10:27:00,
2013-07-18 05:32:00,76.3,62.3,30.14,NNE,20,0.0,0.0,62,0.00,CLR,,0.00,WeatherDisplay:10.37,2013-07-18 10:32:00,
2013-07-18 05:37:00,76.3,62.3,30.14,NNE,20,0.0,0.0,62,0.00,CLR,,0.00,WeatherDisplay:10.37,2013-07-18 10:37:00,
2013-07-18 05:42:00,76.3,62.3,30.14,NNE,20,0.0,0.0,62,0.00,CLR,,0.00,WeatherDisplay:10.37,2013-07-18 10:42:00,
2013-07-18 05:47:00,76.1,62.1,30.14,NNE,20,0.0,0.0,62,0.00,CLR,,0.00,WeatherDisplay:10.37,2013-07-18 10:47:00,
2013-07-18 05:52:00,75.7,61.8,30.14,NNE,20,0.0,0.0,62,0.00,CLR,,0.00,WeatherDisplay:10.37,2013-07-18 10:52:00,
2013-07-18 05:57:00,75.7,61.8,30.14,NNE,20,0.0,0.0,62,0.00,CLR,,0.00,WeatherDisplay:10.37,2013-07-18 10:57:00,
2013-07-18 06:02:00,75.7,62.2,30.14,NNE,20,0.0,0.0,63,0.00,CLR,,0.00,WeatherDisplay:10.37,2013-07-18 11:02:00,
2013-07-18 06:07:00,75.7,62.2,30.14,NNE,20,0.0,0.0,63,0.00,CLR,,0.00,WeatherDisplay:10.37,2013-07-18 11:07:00,
2013-07-18 06:12:00,75.7,62.2,30.14,NNE,20,0.0,0.0,63,0.00,CLR,,0.00,WeatherDisplay:10.37,2013-07-18 11:12:00,
2013-07-18 06:17:00,75.9,62.4,30.14,NNE,20,0.0,0.0,63,0.00,CLR,,0.00,WeatherDisplay:10.37,2013-07-18 11:17:00,
2013-07-18 06:22:00,75.9,62.4,30.14,NNE,20,0.0,0.0,63,0.00,CLR,,0.00,WeatherDisplay:10.37,2013-07-18 11:22:00,
2013-07-18 06:27:00,75.9,62.4,30.14,NNE,20,0.0,0.0,63,0.00,CLR,,0.00,WeatherDisplay:10.37,2013-07-18 11:27:00,
2013-07-18 06:32:00,75.9,62.4,30.14,NNE,20,0.0,0.0,63,0.00,CLR,,0.00,WeatherDisplay:10.37,2013-07-18 11:32:00,
2013-07-18 06:37:00,75.7,62.2,30.14,NNE,20,0.0,0.0,63,0.00,CLR,,0.00,WeatherDisplay:10.37,2013-07-18 11:37:00,
2013-07-18 06:42:00,75.7,62.7,30.14,NNE,20,0.0,0.0,64,0.00,CLR,,0.00,WeatherDisplay:10.37,2013-07-18 11:42:00,
2013-07-18 06:47:00,76.1,63.0,30.14,NNE,20,0.0,0.0,64,0.00,CLR,,0.00,WeatherDisplay:10.37,2013-07-18 11:47:00,
2013-07-18 06:52:00,76.5,63.8,30.14,NNE,20,0.0,0.0,65,0.00,CLR,,0.00,WeatherDisplay:10.37,2013-07-18 11:52:00,
2013-07-18 06:57:00,76.6,64.0,30.14,NNE,20,0.0,0.0,65,0.00,CLR,,0.00,WeatherDisplay:10.37,2013-07-18 11:57:00,
2013-07-18 07:02:00,76.8,64.2,30.14,NNE,20,0.0,0.0,65,0.00,CLR,,0.00,WeatherDisplay:10.37,2013-07-18 12:02:00,
2013-07-18 07:07:00,77.2,64.1,30.14,NNE,20,0.0,0.0,64,0.00,CLR,,0.00,WeatherDisplay:10.37,2013-07-18 12:07:00,
2013-07-18 07:12:00,77.4,64.2,30.14,NNE,20,0.0,0.0,64,0.00,CLR,,0.00,WeatherDisplay:10.37,2013-07-18 12:12:00,
2013-07-18 07:17:00,77.4,64.2,30.14,NNE,20,0.0,0.0,64,0.00,CLR,,0.00,WeatherDisplay:10.37,2013-07-18 12:17:00,
2013-07-18 07:22:00,77.5,63.9,30.14,NNE,20,0.0,0.0,63,0.00,CLR,,0.00,WeatherDisplay:10.37,2013-07-18 12:22:00,
2013-07-18 07:27:00,77.7,64.1,30.14,NNE,20,0.0,0.0,63,0.00,CLR,,0.00,WeatherDisplay:10.37,2013-07-18 12:27:00,
2013-07-18 07:32:00,77.7,64.1,30.14,NNE,20,0.0,0.0,63,0.00,CLR,,0.00,WeatherDisplay:10.37,2013-07-18 12:32:00,
2013-07-18 07:37:00,77.9,64.3,30.14,NNE,20,0.0,0.0,63,0.00,CLR,,0.00,WeatherDisplay:10.37,2013-07-18 12:37:00,
2013-07-18 07:42:00,78.1,64.0,30.14,NNE,20,0.0,0.0,62,0.00,CLR,,0.00,WeatherDisplay:10.37,2013-07-18 12:42:00,
2013-07-18 07:47:00,78.1,64.0,30.14,NNE,20,0.0,0.0,62,0.00,CLR,,0.00,WeatherDisplay:10.37,2013-07-18 12:47:00,
2013-07-18 07:52:00,78.1,64.0,30.14,NNE,19,0.0,0.0,62,0.00,CLR,,0.00,WeatherDisplay:10.37,2013-07-18 12:52:00,
2013-07-18 07:57:00,78.1,63.5,30.14,NNW,331,0.0,0.0,61,0.00,CLR,,0.00,WeatherDisplay:10.37,2013-07-18 12:57:00,
2013-07-18 08:02:00,78.1,63.5,30.14,NNW,331,0.0,0.0,61,0.00,CLR,,0.00,WeatherDisplay:10.37,2013-07-18 13:02:00,
2013-07-18 08:07:00,78.3,63.7,30.14,NNW,331,0.0,0.0,61,0.00,CLR,,0.00,WeatherDisplay:10.37,2013-07-18 13:07:00,
2013-07-18 08:12:00,78.3,63.7,30.14,NNW,331,0.0,0.0,61,0.00,CLR,,0.00,WeatherDisplay:10.37,2013-07-18 13:12:00,
2013-07-18 08:17:00,78.3,63.7,30.14,NNW,331,0.0,0.0,61,0.00,CLR,,0.00,WeatherDisplay:10.37,2013-07-18 13:17:00,
2013-07-18 08:22:00,78.4,63.9,30.14,NNW,331,0.0,0.0,61,0.00,CLR,,0.00,WeatherDisplay:10.37,2013-07-18 13:22:00,
2013-07-18 08:27:00,78.6,64.0,30.14,NNW,331,0.0,0.0,61,0.00,CLR,,0.00,WeatherDisplay:10.37,2013-07-18 13:27:00,
2013-07-18 08:32:00,79.0,63.9,30.14,WNW,300,0.0,0.0,60,0.00,CLR,,0.00,WeatherDisplay:10.37,2013-07-18 13:32:00,
2013-07-18 08:37:00,79.3,64.2,30.14,WNW,300,0.0,0.0,60,0.00,CLR,,0.00,WeatherDisplay:10.37,2013-07-18 13:37:00,
2013-07-18 08:42:00,79.9,64.8,30.14,WNW,300,0.0,0.0,60,0.00,CLR,,0.00,WeatherDisplay:10.37,2013-07-18 13:42:00,
2013-07-18 08:47:00,80.2,65.1,30.17,WNW,300,0.0,0.0,60,0.00,CLR,,0.00,WeatherDisplay:10.37,2013-07-18 13:47:00,
2013-07-18 08:52:00,80.6,65.4,30.17,WNW,300,0.0,0.0,60,0.00,CLR,,0.00,WeatherDisplay:10.37,2013-07-18 13:52:00,
2013-07-18 08:57:00,81.1,65.9,30.17,WNW,300,0.0,0.0,60,0.00,CLR,,0.00,WeatherDisplay:10.37,2013-07-18 13:57:00,
2013-07-18 09:02:00,81.7,66.0,30.17,WNW,300,0.0,0.0,59,0.00,CLR,,0.00,WeatherDisplay:10.37,2013-07-18 14:02:00,
2013-07-18 09:07:00,82.0,66.3,30.17,WNW,300,0.0,0.0,59,0.00,CLR,,0.00,WeatherDisplay:10.37,2013-07-18 14:07:00,
2013-07-18 09:12:00,82.2,66.0,30.17,WNW,300,0.0,0.0,58,0.00,CLR,,0.00,WeatherDisplay:10.37,2013-07-18 14:12:00,
2013-07-18 09:17:00,82.6,65.8,30.17,WNW,300,0.0,0.0,57,0.00,CLR,,0.00,WeatherDisplay:10.37,2013-07-18 14:17:00,
2013-07-18 09:22:00,82.9,66.1,30.17,WNW,300,0.0,0.0,57,0.00,CLR,,0.00,WeatherDisplay:10.37,2013-07-18 14:22:00,
2013-07-18 09:27:00,83.3,66.5,30.17,WNW,300,0.0,0.0,57,0.00,CLR,,0.00,WeatherDisplay:10.37,2013-07-18 14:27:00,
2013-07-18 09:32:00,83.7,66.3,30.14,WNW,300,0.0,0.0,56,0.00,CLR,,0.00,WeatherDisplay:10.37,2013-07-18 14:32:00,
2013-07-18 09:37:00,83.8,66.5,30.14,WNW,300,0.0,0.0,56,0.00,CLR,,0.00,WeatherDisplay:10.37,2013-07-18 14:37:00,
2013-07-18 09:42:00,84.2,66.3,30.14,WNW,300,0.0,0.0,55,0.00,CLR,,0.00,WeatherDisplay:10.37,2013-07-18 14:42:00,
2013-07-18 09:47:00,84.6,66.6,30.14,WNW,298,0.0,0.0,55,0.00,CLR,,0.00,WeatherDisplay:10.37,2013-07-18 14:47:00,
2013-07-18 09:52:00,84.9,66.4,30.14,WNW,298,0.0,0.0,54,0.00,CLR,,0.00,WeatherDisplay:10.37,2013-07-18 14:52:00,
2013-07-18 09:57:00,85.1,65.5,30.14,West,268,0.0,0.0,52,0.00,CLR,,0.00,WeatherDisplay:10.37,2013-07-18 14:57:00,
2013-07-18 10:02:00,85.3,65.1,30.14,SW,236,0.0,3.5,51,0.00,CLR,,0.00,WeatherDisplay:10.37,2013-07-18 15:02:00,
2013-07-18 10:07:00,85.6,63.7,30.14,North,9,0.0,0.0,48,0.00,CLR,,0.00,WeatherDisplay:10.37,2013-07-18 15:07:00,
2013-07-18 10:12:00,86.0,63.4,30.14,North,9,0.0,0.0,47,0.00,CLR,,0.00,WeatherDisplay:10.37,2013-07-18 15:12:00,
2013-07-18 10:17:00,86.4,63.1,30.14,North,9,0.0,0.0,46,0.00,CLR,,0.00,WeatherDisplay:10.37,2013-07-18 15:17:00,
2013-07-18 10:22:00,86.7,62.8,30.14,SE,136,0.0,0.0,45,0.00,CLR,,0.00,WeatherDisplay:10.37,2013-07-18 15:22:00,
2013-07-18 10:27:00,87.1,63.2,30.14,SE,136,0.0,0.0,45,0.00,CLR,,0.00,WeatherDisplay:10.37,2013-07-18 15:27:00,
2013-07-18 10:32:00,88.0,64.0,30.14,SE,141,0.0,0.0,45,0.00,CLR,,0.00,WeatherDisplay:10.37,2013-07-18 15:32:00,
2013-07-18 10:37:00,88.5,63.8,30.14,NNE,17,0.0,2.7,44,0.00,CLR,,0.00,WeatherDisplay:10.37,2013-07-18 15:37:00,
2013-07-18 10:42:00,88.7,64.0,30.14,SE,137,0.0,0.0,44,0.00,CLR,,0.00,WeatherDisplay:10.37,2013-07-18 15:42:00,
2013-07-18 10:47:00,89.1,64.3,30.14,SSE,151,2.2,2.3,44,0.00,CLR,,0.00,WeatherDisplay:10.37,2013-07-18 15:47:00,
2013-07-18 10:52:00,89.1,64.3,30.14,WSW,245,0.0,4.6,44,0.00,CLR,,0.00,WeatherDisplay:10.37,2013-07-18 15:52:00,
2013-07-18 10:57:00,89.1,64.3,30.14,ENE,64,0.0,2.3,44,0.00,CLR,,0.00,WeatherDisplay:10.37,2013-07-18 15:57:00,
2013-07-18 11:02:00,89.4,64.6,30.14,WSW,242,2.2,3.5,44,0.00,CLR,,0.00,WeatherDisplay:10.37,2013-07-18 16:02:00,
2013-07-18 11:07:00,90.0,64.5,30.14,SSW,211,0.0,3.5,43,0.00,CLR,,0.00,WeatherDisplay:10.37,2013-07-18 16:07:00,
2013-07-18 11:12:00,90.1,64.6,30.14,SSE,150,0.0,0.0,43,0.00,CLR,,0.00,WeatherDisplay:10.37,2013-07-18 16:12:00,
2013-07-18 11:17:00,90.5,64.9,30.14,West,265,0.0,0.0,43,0.00,CLR,,0.00,WeatherDisplay:10.37,2013-07-18 16:17:00,
2013-07-18 11:22:00,90.3,64.8,30.14,West,277,2.2,3.5,43,0.00,CLR,,0.00,WeatherDisplay:10.37,2013-07-18 16:22:00,
2013-07-18 11:27:00,90.5,64.9,30.14,WNW,286,4.0,5.8,43,0.00,CLR,,0.00,WeatherDisplay:10.37,2013-07-18 16:27:00,
2013-07-18 11:32:00,90.9,65.3,30.14,SSW,213,0.0,3.5,43,0.00,CLR,,0.00,WeatherDisplay:10.37,2013-07-18 16:32:00,
2013-07-18 11:37:00,90.9,65.3,30.14,NNW,341,0.0,0.0,43,0.00,CLR,,0.00,WeatherDisplay:10.37,2013-07-18 16:37:00,
2013-07-18 11:42:00,90.7,65.1,30.14,WNW,288,0.0,2.3,43,0.00,CLR,,0.00,WeatherDisplay:10.37,2013-07-18 16:42:00,
2013-07-18 11:47:00,90.3,64.8,30.14,WNW,288,0.0,0.0,43,0.00,CLR,,0.00,WeatherDisplay:10.37,2013-07-18 16:47:00,
2013-07-18 11:52:00,90.0,64.5,30.11,WNW,288,0.0,0.0,43,0.00,CLR,,0.00,WeatherDisplay:10.37,2013-07-18 16:52:00,
2013-07-18 11:57:00,89.4,64.6,30.11,WNW,288,0.0,0.0,44,0.00,CLR,,0.00,WeatherDisplay:10.37,2013-07-18 16:57:00,
2013-07-18 12:02:00,89.1,64.3,30.11,WNW,288,0.0,0.0,44,0.00,CLR,,0.00,WeatherDisplay:10.37,2013-07-18 17:02:00,
2013-07-18 12:07:00,88.7,64.0,30.11,NE,45,2.7,4.6,44,0.00,CLR,,0.00,WeatherDisplay:10.37,2013-07-18 17:07:00,
2013-07-18 12:12:00,88.2,63.5,30.11,NNW,340,0.0,0.0,44,0.00,CLR,,0.00,WeatherDisplay:10.37,2013-07-18 17:12:00,
2013-07-18 12:17:00,87.8,63.2,30.11,North,353,0.0,3.5,44,0.00,CLR,,0.00,WeatherDisplay:10.37,2013-07-18 17:17:00,
2013-07-18 12:22:00,87.6,63.0,30.11,NE,49,0.0,3.5,44,0.00,CLR,,0.00,WeatherDisplay:10.37,2013-07-18 17:22:00,
2013-07-18 12:27:00,88.2,63.5,30.11,SE,146,0.0,3.1,44,0.00,CLR,,0.00,WeatherDisplay:10.37,2013-07-18 17:27:00,
2013-07-18 12:32:00,89.1,64.3,30.11,SE,142,0.0,0.0,44,0.00,CLR,,0.00,WeatherDisplay:10.37,2013-07-18 17:32:00,
2013-07-18 12:37:00,89.6,64.1,30.11,North,357,0.0,0.0,43,0.00,CLR,,0.00,WeatherDisplay:10.37,2013-07-18 17:37:00,
2013-07-18 12:42:00,89.6,62.8,30.11,North,8,3.1,3.5,41,0.00,CLR,,0.00,WeatherDisplay:10.37,2013-07-18 17:42:00,
2013-07-18 12:47:00,89.4,62.6,30.08,North,357,0.0,2.7,41,0.00,CLR,,0.00,WeatherDisplay:10.37,2013-07-18 17:47:00,
2013-07-18 12:52:00,89.8,62.9,30.08,NE,53,2.2,3.5,41,0.00,CLR,,0.00,WeatherDisplay:10.37,2013-07-18 17:52:00,
2013-07-18 12:57:00,90.3,63.4,30.08,ENE,78,2.7,2.7,41,0.00,CLR,,0.00,WeatherDisplay:10.37,2013-07-18 17:57:00,
2013-07-18 13:02:00,90.7,63.7,30.08,SE,140,0.0,3.5,41,0.00,CLR,,0.00,WeatherDisplay:10.37,2013-07-18 18:02:00,
2013-07-18 13:08:00,91.2,62.1,30.08,NNE,28,0.0,2.7,38,0.00,CLR,,0.00,WeatherDisplay:10.37,2013-07-18 18:08:00,
2013-07-18 13:13:00,91.6,63.8,30.08,North,357,0.0,3.5,40,0.00,CLR,,0.00,WeatherDisplay:10.37,2013-07-18 18:13:00,
2013-07-18 13:18:00,91.4,62.2,30.08,East,79,2.7,3.5,38,0.00,CLR,,0.00,WeatherDisplay:10.37,2013-07-18 18:18:00,
2013-07-18 13:23:00,91.0,61.9,30.08,ENE,63,2.2,3.5,38,0.00,CLR,,0.00,WeatherDisplay:10.37,2013-07-18 18:23:00,
2013-07-18 13:28:00,90.5,61.4,30.08,NNW,344,2.2,3.5,38,0.00,CLR,,0.00,WeatherDisplay:10.37,2013-07-18 18:28:00,
2013-07-18 13:33:00,90.0,60.9,30.08,NNE,29,0.0,0.0,38,0.00,CLR,,0.00,WeatherDisplay:10.37,2013-07-18 18:33:00,
2013-07-18 13:38:00,89.4,61.2,30.08,NNE,32,0.0,0.0,39,0.00,CLR,,0.00,WeatherDisplay:10.37,2013-07-18 18:38:00,
2013-07-18 13:43:00,89.1,62.3,30.08,North,357,2.7,3.5,41,0.00,CLR,,0.00,WeatherDisplay:10.37,2013-07-18 18:43:00,
2013-07-18 13:48:00,88.7,62.0,30.08,NNE,23,0.0,0.0,41,0.00,CLR,,0.00,WeatherDisplay:10.37,2013-07-18 18:48:00,
2013-07-18 13:53:00,88.7,62.0,30.08,NNE,23,0.0,0.0,41,0.00,CLR,,0.00,WeatherDisplay:10.37,2013-07-18 18:53:00,
2013-07-18 13:58:00,88.5,61.8,30.08,NNE,23,0.0,0.0,41,0.00,CLR,,0.00,WeatherDisplay:10.37,2013-07-18 18:58:00,
2013-07-18 14:03:00,88.3,61.7,30.08,NNE,22,0.0,0.0,41,0.00,CLR,,0.00,WeatherDisplay:10.37,2013-07-18 19:03:00,
2013-07-18 14:08:00,88.2,61.5,30.08,SSW,205,2.2,5.8,41,0.00,CLR,,0.00,WeatherDisplay:10.37,2013-07-18 19:08:00,
2013-07-18 14:13:00,87.6,61.7,30.08,West,271,3.1,5.8,42,0.00,CLR,,0.00,WeatherDisplay:10.37,2013-07-18 19:13:00,
2013-07-18 14:18:00,87.1,61.2,30.08,NW,311,2.2,3.5,42,0.00,CLR,,0.00,WeatherDisplay:10.37,2013-07-18 19:18:00,
2013-07-18 14:23:00,86.5,60.7,30.08,NW,319,4.0,5.8,42,0.00,CLR,,0.00,WeatherDisplay:10.37,2013-07-18 19:23:00,
2013-07-18 14:28:00,85.8,60.1,30.08,WSW,249,0.0,0.0,42,0.00,CLR,,0.00,WeatherDisplay:10.37,2013-07-18 19:28:00,
2013-07-18 14:33:00,85.5,59.8,30.05,SSW,207,0.0,3.5,42,0.00,CLR,,0.00,WeatherDisplay:10.37,2013-07-18 19:33:00,
2013-07-18 14:38:00,85.1,59.4,30.05,West,279,2.2,3.5,42,0.00,CLR,,0.00,WeatherDisplay:10.37,2013-07-18 19:38:00,
2013-07-18 14:43:00,84.7,59.1,30.05,West,279,0.0,0.0,42,0.00,CLR,,0.00,WeatherDisplay:10.37,2013-07-18 19:43:00,
2013-07-18 14:48:00,84.4,58.8,30.05,West,279,0.0,0.0,42,0.00,CLR,,0.00,WeatherDisplay:10.37,2013-07-18 19:48:00,
2013-07-18 14:53:00,84.6,60.2,30.05,West,279,0.0,0.0,44,0.00,CLR,,0.00,WeatherDisplay:10.37,2013-07-18 19:53:00,
2013-07-18 14:58:00,84.6,60.2,30.05,West,279,0.0,2.3,44,0.00,CLR,,0.00,WeatherDisplay:10.37,2013-07-18 19:58:00,
2013-07-18 15:03:00,84.6,60.2,30.02,West,279,0.0,0.0,44,0.00,CLR,,0.00,WeatherDisplay:10.37,2013-07-18 20:03:00,
2013-07-18 15:08:00,84.7,60.4,30.02,West,279,0.0,0.0,44,0.00,CLR,,0.00,WeatherDisplay:10.37,2013-07-18 20:08:00,
2013-07-18 15:13:00,84.7,60.4,30.02,West,279,0.0,0.0,44,0.00,CLR,,0.00,WeatherDisplay:10.37,2013-07-18 20:13:00,
2013-07-18 15:18:00,84.7,60.4,30.02,West,279,0.0,0.0,44,0.00,CLR,,0.00,WeatherDisplay:10.37,2013-07-18 20:18:00,
2013-07-18 15:23:00,84.9,60.6,30.02,West,279,0.0,0.0,44,0.00,CLR,,0.00,WeatherDisplay:10.37,2013-07-18 20:23:00,
2013-07-18 15:28:00,85.1,60.7,30.02,West,279,0.0,0.0,44,0.00,CLR,,0.00,WeatherDisplay:10.37,2013-07-18 20:28:00,
2013-07-18 15:33:00,85.3,60.9,30.02,West,281,0.0,0.0,44,0.00,CLR,,0.00,WeatherDisplay:10.37,2013-07-18 20:33:00,
2013-07-18 15:38:00,85.5,61.1,30.02,West,281,0.0,0.0,44,0.00,CLR,,0.00,WeatherDisplay:10.37,2013-07-18 20:38:00,
2013-07-18 15:43:00,85.5,61.1,30.02,WNW,283,0.0,3.5,44,0.00,CLR,,0.00,WeatherDisplay:10.37,2013-07-18 20:43:00,
2013-07-18 15:48:00,85.6,61.2,30.05,WNW,282,0.0,0.0,44,0.00,CLR,,0.00,WeatherDisplay:10.37,2013-07-18 20:48:00,
2013-07-18 15:53:00,85.8,61.4,30.05,WNW,282,0.0,2.3,44,0.00,CLR,,0.00,WeatherDisplay:10.37,2013-07-18 20:53:00,
2013-07-18 15:58:00,86.2,61.7,30.05,West,281,0.0,0.0,44,0.00,CLR,,0.00,WeatherDisplay:10.37,2013-07-18 20:58:00,
2013-07-18 16:03:00,86.4,61.9,30.05,West,280,0.0,0.0,44,0.00,CLR,,0.00,WeatherDisplay:10.37,2013-07-18 21:03:00,
2013-07-18 16:08:00,86.4,61.9,30.05,West,280,0.0,0.0,44,0.00,CLR,,0.00,WeatherDisplay:10.37,2013-07-18 21:08:00,
2013-07-18 16:13:00,86.5,62.0,30.05,West,281,0.0,3.5,44,0.00,CLR,,0.00,WeatherDisplay:10.37,2013-07-18 21:13:00,
2013-07-18 16:18:00,86.7,62.2,30.05,West,267,0.0,3.6,44,0.00,CLR,,0.00,WeatherDisplay:10.37,2013-07-18 21:18:00,
2013-07-18 16:23:00,87.1,62.5,30.05,SW,233,0.0,0.0,44,0.00,CLR,,0.00,WeatherDisplay:10.37,2013-07-18 21:23:00,
2013-07-18 16:28:00,87.3,62.7,30.05,WSW,246,0.0,0.0,44,0.00,CLR,,0.00,WeatherDisplay:10.37,2013-07-18 21:28:00,
2013-07-18 16:33:00,87.4,62.8,30.05,SSW,202,0.0,0.0,44,0.00,CLR,,0.00,WeatherDisplay:10.37,2013-07-18 21:33:00,
2013-07-18 16:38:00,87.6,63.0,30.02,WSW,257,0.0,0.0,44,0.00,CLR,,0.00,WeatherDisplay:10.37,2013-07-18 21:38:00,
2013-07-18 16:43:00,88.0,61.3,30.02,WSW,243,0.0,0.0,41,0.00,CLR,,0.00,WeatherDisplay:10.37,2013-07-18 21:43:00,
2013-07-18 16:48:00,88.2,61.5,30.05,West,265,0.0,0.0,41,0.00,CLR,,0.00,WeatherDisplay:10.37,2013-07-18 21:48:00,
2013-07-18 16:53:00,88.3,61.7,30.05,South,188,0.0,0.0,41,0.00,CLR,,0.00,WeatherDisplay:10.37,2013-07-18 21:53:00,
2013-07-18 16:58:00,88.5,61.8,30.05,South,189,0.0,0.0,41,0.00,CLR,,0.00,WeatherDisplay:10.37,2013-07-18 21:58:00,
2013-07-18 17:03:00,88.5,61.8,30.02,WNW,285,0.0,0.0,41,0.00,CLR,,0.00,WeatherDisplay:10.37,2013-07-18 22:03:00,
2013-07-18 17:08:00,88.7,62.0,30.02,North,8,0.0,2.3,41,0.00,CLR,,0.00,WeatherDisplay:10.37,2013-07-18 22:08:00,
2013-07-18 17:13:00,88.9,62.1,30.02,SE,146,0.0,0.0,41,0.00,CLR,,0.00,WeatherDisplay:10.37,2013-07-18 22:13:00,
2013-07-18 17:18:00,89.1,62.3,30.02,NNE,13,0.0,2.3,41,0.00,CLR,,0.00,WeatherDisplay:10.37,2013-07-18 22:18:00,
2013-07-18 17:23:00,89.4,62.6,30.05,ENE,78,2.2,4.0,41,0.00,CLR,,0.00,WeatherDisplay:10.37,2013-07-18 22:23:00,
2013-07-18 17:28:00,89.4,62.6,30.05,SE,133,3.6,4.6,41,0.00,CLR,,0.00,WeatherDisplay:10.37,2013-07-18 22:28:00,
2013-07-18 17:33:00,88.2,61.5,30.05,North,0,2.2,3.5,41,0.00,CLR,,0.00,WeatherDisplay:10.37,2013-07-18 22:33:00,
2013-07-18 17:38:00,86.4,60.6,30.05,NNE,12,2.7,3.5,42,0.00,CLR,,0.00,WeatherDisplay:10.37,2013-07-18 22:38:00,
2013-07-18 17:43:00,85.3,59.6,30.05,North,9,4.0,5.8,42,0.00,CLR,,0.00,WeatherDisplay:10.37,2013-07-18 22:43:00,
2013-07-18 17:48:00,83.7,58.1,30.05,SE,145,3.1,4.6,42,0.00,CLR,,0.00,WeatherDisplay:10.37,2013-07-18 22:48:00,
2013-07-18 17:53:00,82.8,57.3,30.05,ENE,68,0.0,0.0,42,0.00,CLR,,0.00,WeatherDisplay:10.37,2013-07-18 22:53:00,
2013-07-18 17:58:00,82.2,58.8,30.05,SE,138,2.2,3.5,45,0.00,CLR,,0.00,WeatherDisplay:10.37,2013-07-18 22:58:00,
2013-07-18 18:03:00,81.5,58.7,30.05,NE,50,0.0,0.0,46,0.00,CLR,,0.00,WeatherDisplay:10.37,2013-07-18 23:03:00,
2013-07-18 18:08:00,80.8,58.1,30.05,North,4,0.0,0.0,46,0.00,CLR,,0.00,WeatherDisplay:10.37,2013-07-18 23:08:00,
2013-07-18 18:13:00,80.4,58.9,30.05,SE,146,0.0,0.0,48,0.00,CLR,,0.00,WeatherDisplay:10.37,2013-07-18 23:13:00,
2013-07-18 18:18:00,80.4,58.9,30.02,SSE,147,0.0,0.0,48,0.00,CLR,,0.00,WeatherDisplay:10.37,2013-07-18 23:18:00,
2013-07-18 18:23:00,80.4,59.5,30.02,SSE,147,0.0,0.0,49,0.00,CLR,,0.00,WeatherDisplay:10.37,2013-07-18 23:23:00,
2013-07-18 18:28:00,80.4,60.1,30.02,SSE,147,0.0,0.0,50,0.00,CLR,,0.00,WeatherDisplay:10.37,2013-07-18 23:28:00,
2013-07-18 18:33:00,80.2,60.5,30.02,SSE,147,0.0,0.0,51,0.00,CLR,,0.00,WeatherDisplay:10.37,2013-07-18 23:33:00,
2013-07-18 18:38:00,80.1,60.8,30.02,SSE,147,0.0,0.0,52,0.00,CLR,,0.00,WeatherDisplay:10.37,2013-07-18 23:38:00,
2013-07-18 18:43:00,80.1,61.4,30.02,SSE,147,0.0,0.0,53,0.00,CLR,,0.00,WeatherDisplay:10.37,2013-07-18 23:43:00,
2013-07-18 18:48:00,80.1,62.4,30.02,South,178,0.0,0.0,55,0.00,CLR,,0.00,WeatherDisplay:10.37,2013-07-18 23:48:00,
2013-07-18 18:53:00,80.2,63.1,30.05,South,178,0.0,0.0,56,0.00,CLR,,0.00,WeatherDisplay:10.37,2013-07-18 23:53:00,
2013-07-18 18:58:00,80.1,62.9,30.05,WSW,243,0.0,0.0,56,0.00,CLR,,0.00,WeatherDisplay:10.37,2013-07-18 23:58:00,
2013-07-18 19:03:00,79.9,62.8,30.05,WSW,242,0.0,0.0,56,0.00,CLR,,0.00,WeatherDisplay:10.37,2013-07-19 00:03:00,
2013-07-18 19:08:00,79.7,62.6,30.05,WSW,242,0.0,0.0,56,0.00,CLR,,0.00,WeatherDisplay:10.37,2013-07-19 00:08:00,
2013-07-18 19:13:00,79.9,63.3,30.05,WSW,244,0.0,0.0,57,0.04,RA,,0.04,WeatherDisplay:10.37,2013-07-19 00:13:00,
2013-07-18 19:18:00,79.9,63.3,30.05,SSW,192,0.0,0.0,57,0.04,RA,,0.04,WeatherDisplay:10.37,2013-07-19 00:18:00,
2013-07-18 19:23:00,79.9,63.3,30.05,SSW,192,0.0,0.0,57,0.04,,,0.04,WeatherDisplay:10.37,2013-07-19 00:23:00,
2013-07-18 19:28:00,79.9,63.8,30.05,SSW,192,0.0,0.0,58,0.04,CLR,,0.04,WeatherDisplay:10.37,2013-07-19 00:28:00,
2013-07-18 19:33:00,79.9,63.8,30.05,SSE,153,0.0,0.0,58,0.04,CLR,,0.04,WeatherDisplay:10.37,2013-07-19 00:33:00,
2013-07-18 19:38:00,79.7,63.6,30.05,WSW,238,0.0,3.5,58,0.04,CLR,,0.04,WeatherDisplay:10.37,2013-07-19 00:38:00,
2013-07-18 19:43:00,79.5,63.4,30.05,South,186,0.0,0.0,58,0.04,CLR,,0.04,WeatherDisplay:10.37,2013-07-19 00:43:00,
2013-07-18 19:48:00,79.3,63.3,30.05,ESE,116,0.0,2.3,58,0.04,CLR,,0.04,WeatherDisplay:10.37,2013-07-19 00:48:00,
2013-07-18 19:53:00,79.0,62.9,30.05,SW,227,0.0,0.0,58,0.04,CLR,,0.04,WeatherDisplay:10.37,2013-07-19 00:53:00,
2013-07-18 19:58:00,78.8,62.8,30.05,South,186,0.0,0.0,58,0.04,CLR,,0.04,WeatherDisplay:10.37,2013-07-19 00:58:00,
2013-07-18 20:03:00,78.6,62.6,30.05,SSE,165,0.0,2.3,58,0.04,CLR,,0.04,WeatherDisplay:10.37,2013-07-19 01:03:00,
2013-07-18 20:08:00,78.4,62.4,30.05,SSE,165,0.0,0.0,58,0.04,CLR,,0.04,WeatherDisplay:10.37,2013-07-19 01:08:00,
2013-07-18 20:13:00,78.3,62.3,30.05,WSW,237,0.0,3.5,58,0.00,CLR,,0.04,WeatherDisplay:10.37,2013-07-19 01:13:00,
2013-07-18 20:18:00,78.1,62.1,30.05,ESE,107,0.0,3.5,58,0.00,CLR,,0.04,WeatherDisplay:10.37,2013-07-19 01:18:00,
2013-07-18 20:23:00,77.9,61.9,30.05,SW,226,0.0,0.0,58,0.00,CLR,,0.04,WeatherDisplay:10.37,2013-07-19 01:23:00,
2013-07-18 20:28:00,77.7,61.8,30.05,SW,219,0.0,0.0,58,0.00,CLR,,0.04,WeatherDisplay:10.37,2013-07-19 01:28:00,
2013-07-18 20:33:00,77.5,61.6,30.05,SW,222,0.0,0.0,58,0.00,CLR,,0.04,WeatherDisplay:10.37,2013-07-19 01:33:00,
2013-07-18 20:38:00,77.5,61.6,30.05,SW,222,0.0,0.0,58,0.00,CLR,,0.04,WeatherDisplay:10.37,2013-07-19 01:38:00,
2013-07-18 20:43:00,77.4,61.4,30.05,SW,222,0.0,0.0,58,0.00,CLR,,0.04,WeatherDisplay:10.37,2013-07-19 01:43:00,
2013-07-18 20:48:00,77.2,61.3,30.02,SW,222,0.0,0.0,58,0.00,CLR,,0.04,WeatherDisplay:10.37,2013-07-19 01:48:00,
2013-07-18 20:53:00,77.0,61.6,30.02,SW,222,0.0,0.0,59,0.00,CLR,,0.04,WeatherDisplay:10.37,2013-07-19 01:53:00,
2013-07-18 20:58:00,77.0,61.6,30.02,SW,222,0.0,0.0,59,0.00,CLR,,0.04,WeatherDisplay:10.37,2013-07-19 01:58:00,
2013-07-18 21:03:00,76.8,61.4,30.02,SSW,209,0.0,0.0,59,0.00,CLR,,0.04,WeatherDisplay:10.37,2013-07-19 02:03:00,
2013-07-18 21:08:00,76.6,61.2,30.02,SSW,205,0.0,0.0,59,0.00,CLR,,0.04,WeatherDisplay:10.37,2013-07-19 02:08:00,
2013-07-18 21:13:00,76.6,61.2,30.02,SSW,205,0.0,0.0,59,0.00,CLR,,0.04,WeatherDisplay:10.37,2013-07-19 02:13:00,
2013-07-18 21:18:00,76.5,61.5,30.02,SSW,205,0.0,0.0,60,0.00,CLR,,0.04,WeatherDisplay:10.37,2013-07-19 02:18:00,
2013-07-18 21:23:00,76.3,61.4,30.02,SSW,206,0.0,0.0,60,0.00,CLR,,0.04,WeatherDisplay:10.37,2013-07-19 02:23:00,
2013-07-18 21:28:00,76.3,61.4,30.02,SSW,206,0.0,0.0,60,0.00,CLR,,0.04,WeatherDisplay:10.37,2013-07-19 02:28:00,
2013-07-18 21:33:00,76.1,61.2,30.02,SSW,206,0.0,0.0,60,0.00,CLR,,0.04,WeatherDisplay:10.37,2013-07-19 02:33:00,
2013-07-18 21:38:00,76.1,61.7,30.02,SSW,206,0.0,0.0,61,0.00,CLR,,0.04,WeatherDisplay:10.37,2013-07-19 02:38:00,
2013-07-18 21:43:00,75.9,61.5,30.02,SSW,206,0.0,0.0,61,0.00,CLR,,0.04,WeatherDisplay:10.37,2013-07-19 02:43:00,
2013-07-18 21:48:00,75.9,61.5,30.05,SSW,206,0.0,0.0,61,0.00,CLR,,0.04,WeatherDisplay:10.37,2013-07-19 02:48:00,
2013-07-18 21:53:00,75.9,61.5,30.05,SSW,206,0.0,0.0,61,0.00,CLR,,0.04,WeatherDisplay:10.37,2013-07-19 02:53:00,
2013-07-18 21:58:00,76.1,62.1,30.05,SSW,206,0.0,0.0,62,0.00,CLR,,0.04,WeatherDisplay:10.37,2013-07-19 02:58:00,
2013-07-18 22:03:00,76.1,62.1,30.05,SSW,206,0.0,0.0,62,0.00,CLR,,0.04,WeatherDisplay:10.37,2013-07-19 03:03:00,
2013-07-18 22:08:00,75.7,61.8,30.02,SSW,206,0.0,0.0,62,0.00,CLR,,0.04,WeatherDisplay:10.37,2013-07-19 03:08:00,
2013-07-18 22:13:00,75.6,61.6,30.02,SSW,206,0.0,0.0,62,0.00,CLR,,0.04,WeatherDisplay:10.37,2013-07-19 03:13:00,
2013-07-18 22:18:00,75.6,61.6,30.02,SSW,206,0.0,0.0,62,0.00,CLR,,0.04,WeatherDisplay:10.37,2013-07-19 03:18:00,
2013-07-18 22:23:00,75.4,61.5,30.05,SSW,206,0.0,0.0,62,0.00,CLR,,0.04,WeatherDisplay:10.37,2013-07-19 03:23:00,
2013-07-18 22:28:00,75.2,61.3,30.05,SSW,206,0.0,0.0,62,0.00,CLR,,0.04,WeatherDisplay:10.37,2013-07-19 03:28:00,
2013-07-18 22:33:00,75.0,61.6,30.05,SSW,206,0.0,0.0,63,0.00,CLR,,0.04,WeatherDisplay:10.37,2013-07-19 03:33:00,
2013-07-18 22:38:00,74.8,61.8,30.02,SSW,206,0.0,0.0,64,0.00,CLR,,0.04,WeatherDisplay:10.37,2013-07-19 03:38:00,
2013-07-18 22:43:00,75.0,62.0,30.02,SSW,206,0.0,0.0,64,0.00,CLR,,0.04,WeatherDisplay:10.37,2013-07-19 03:43:00,
2013-07-18 22:48:00,75.0,62.0,30.02,SSW,206,0.0,0.0,64,0.00,CLR,,0.04,WeatherDisplay:10.37,2013-07-19 03:48:00,
2013-07-18 22:53:00,74.8,61.8,30.02,SSW,206,0.0,0.0,64,0.00,CLR,,0.04,WeatherDisplay:10.37,2013-07-19 03:53:00,
2013-07-18 22:58:00,75.0,62.5,30.02,SSW,206,0.0,0.0,65,0.00,CLR,,0.04,WeatherDisplay:10.37,2013-07-19 03:58:00,
2013-07-18 23:01:00,75.2,62.6,30.02,SSW,206,0.0,0.0,65,0.00,CLR,,0.04,WeatherDisplay:10.37,2013-07-19 04:01:00,
2013-07-18 23:02:00,75.2,62.6,30.02,SSW,206,0.0,0.0,65,0.00,CLR,,0.04,WeatherDisplay:10.37,2013-07-19 04:02:00,
2013-07-18 23:03:00,75.2,62.6,30.02,SSW,206,0.0,0.0,65,0.00,CLR,,0.04,WeatherDisplay:10.37,2013-07-19 04:03:00,
2013-07-18 23:08:00,75.4,62.8,30.02,SSW,206,0.0,0.0,65,0.00,CLR,,0.04,WeatherDisplay:10.37,2013-07-19 04:08:00,
2013-07-18 23:13:00,75.2,62.6,30.02,SSW,206,0.0,0.0,65,0.00,CLR,,0.04,WeatherDisplay:10.37,2013-07-19 04:13:00,
2013-07-18 23:18:00,75.0,62.5,30.05,SSW,206,0.0,0.0,65,0.00,CLR,,0.04,WeatherDisplay:10.37,2013-07-19 04:18:00,
2013-07-18 23:23:00,74.8,62.3,30.05,SSW,206,0.0,0.0,65,0.00,CLR,,0.04,WeatherDisplay:10.37,2013-07-19 04:23:00,
2013-07-18 23:28:00,75.0,62.5,30.05,SSW,206,0.0,0.0,65,0.00,CLR,,0.04,WeatherDisplay:10.37,2013-07-19 04:28:00,
2013-07-18 23:33:00,75.0,62.5,30.05,SW,224,0.0,0.0,65,0.00,CLR,,0.04,WeatherDisplay:10.37,2013-07-19 04:33:00,
2013-07-18 23:38:00,75.2,62.6,30.05,SW,224,0.0,0.0,65,0.00,CLR,,0.04,WeatherDisplay:10.37,2013-07-19 04:38:00,
2013-07-18 23:43:00,75.0,62.5,30.05,SW,224,0.0,0.0,65,0.00,CLR,,0.04,WeatherDisplay:10.37,2013-07-19 04:43:00,
2013-07-18 23:48:00,75.0,62.5,30.05,SW,224,0.0,0.0,65,0.00,CLR,,0.04,WeatherDisplay:10.37,2013-07-19 04:48:00,
2013-07-18 23:53:00,75.0,62.5,30.05,SW,224,0.0,0.0,65,0.00,CLR,,0.04,WeatherDisplay:10.37,2013-07-19 04:53:00,
2013-07-18 23:58:00,74.8,62.3,30.05,SW,224,0.0,0.0,65,0.00,CLR,,0.04,WeatherDisplay:10.37,2013-07-19 04:58:00,